Shekhupura, Pakistan
Current Conditions -  °F | °C
As of 11:30 PM on Monday 26 Jan 2015 (Local Time) from OPLA Reporting Station
Haze Haze  
Wind Chill:   Ceiling: Unl
Heat Index:   Visibility: 0.93mi
Dew Point:   Wind: 0mph
Humidity: 87%   Direction: NA
Pressure: 30.15"   Gusts: NA
Location:  31.72°N, 73.98°E
Report Text: OPLA 261830Z 00000KT 1500 BR NSC 09/07 Q1021
Loading
Personal Weather Stations






























Interactive Weather Map New forecast layout! Learn more

10-Day Weather Forecast

Advertisements
Track Severe Weather on mobile